createdAt,value
2023-08-16T00:01:23.503Z,7.10
2023-08-16T00:05:34.666Z,6.80
2023-08-16T00:09:42.743Z,6.10
2023-08-16T00:13:50.514Z,6.70
2023-08-16T00:17:58.246Z,7.40
2023-08-16T00:22:07.438Z,7.30
2023-08-16T00:26:15.083Z,7.70
2023-08-16T00:30:22.905Z,7.90
2023-08-16T00:34:31.202Z,7.20
2023-08-16T00:38:44.119Z,6.90
2023-08-16T00:42:52.064Z,7.20
2023-08-16T00:46:59.942Z,7.80
2023-08-16T00:51:08.103Z,7.90
2023-08-16T00:55:16.098Z,6.90
2023-08-16T00:59:24.778Z,7.60
2023-08-16T01:03:32.447Z,7.00
2023-08-16T01:07:40.577Z,7.80
2023-08-16T01:11:54.895Z,7.10
2023-08-16T01:16:03.865Z,7.40
2023-08-16T01:20:14.654Z,7.90
2023-08-16T01:24:29.022Z,7.60
2023-08-16T01:28:37.834Z,7.50
2023-08-16T01:32:45.998Z,7.90
2023-08-16T01:36:53.600Z,7.60
2023-08-16T01:41:05.342Z,7.70
2023-08-16T01:45:14.013Z,8.10
2023-08-16T01:49:22.653Z,7.50
2023-08-16T01:53:31.345Z,7.40
2023-08-16T01:57:39.430Z,7.60
2023-08-16T02:01:47.298Z,8.60
2023-08-16T02:05:55.657Z,8.60
2023-08-16T02:10:03.664Z,8.00
2023-08-16T02:14:12.710Z,7.20
2023-08-16T02:18:20.943Z,8.00
2023-08-16T02:22:40.780Z,8.60
2023-08-16T02:26:50.625Z,8.40
2023-08-16T02:31:07.164Z,7.50
2023-08-16T02:35:19.296Z,7.40
2023-08-16T02:39:27.669Z,7.60
2023-08-16T02:43:35.404Z,7.50
2023-08-16T02:47:43.557Z,7.90
2023-08-16T02:51:52.419Z,9.00
2023-08-16T02:56:00.623Z,8.30
2023-08-16T03:00:11.867Z,7.90
2023-08-16T03:04:19.406Z,8.10
2023-08-16T03:08:27.880Z,8.60
2023-08-16T03:12:35.835Z,8.50
2023-08-16T03:16:43.934Z,7.50
2023-08-16T03:20:51.980Z,7.40
2023-08-16T03:25:00.532Z,6.90
2023-08-16T03:29:11.327Z,8.00
2023-08-16T03:33:19.148Z,8.20
2023-08-16T03:37:27.052Z,8.60
2023-08-16T03:41:35.224Z,7.40
2023-08-16T03:45:43.185Z,7.50
2023-08-16T03:49:51.250Z,8.10
2023-08-16T03:53:59.168Z,8.30
2023-08-16T03:58:07.313Z,8.40
2023-08-16T04:02:15.092Z,8.10
2023-08-16T04:06:22.930Z,8.60
2023-08-16T04:10:31.197Z,7.90
2023-08-16T04:14:40.143Z,8.50
2023-08-16T04:18:49.319Z,9.00
2023-08-16T04:22:57.609Z,9.10
2023-08-16T04:27:05.917Z,8.90
2023-08-16T04:31:14.055Z,8.60
2023-08-16T04:35:21.947Z,8.10
2023-08-16T04:39:29.678Z,7.60
2023-08-16T04:43:37.476Z,8.30
2023-08-16T04:47:45.716Z,8.90
2023-08-16T04:51:54.098Z,8.70
2023-08-16T04:56:01.726Z,9.10
2023-08-16T05:00:12.116Z,8.20
2023-08-16T05:04:20.125Z,7.80
2023-08-16T05:08:28.118Z,8.30
2023-08-16T05:12:37.649Z,9.10
2023-08-16T05:16:45.609Z,8.90
2023-08-16T05:20:54.190Z,8.00
2023-08-16T05:25:02.579Z,8.20
2023-08-16T05:29:10.545Z,7.90
2023-08-16T05:33:20.149Z,8.80
2023-08-16T05:37:29.510Z,9.10
2023-08-16T05:41:38.491Z,8.10
2023-08-16T05:45:46.452Z,8.10
2023-08-16T05:49:55.320Z,8.30
2023-08-16T05:54:03.890Z,8.70
2023-08-16T05:58:11.689Z,8.60
2023-08-16T06:02:24.582Z,8.50
2023-08-16T06:06:32.808Z,8.60
2023-08-16T06:10:40.775Z,8.50
2023-08-16T06:14:48.740Z,8.70
2023-08-16T06:18:57.441Z,8.70
2023-08-16T06:23:05.908Z,8.70
2023-08-16T06:27:14.864Z,8.40
2023-08-16T06:31:22.964Z,8.80
2023-08-16T06:35:33.812Z,8.80
2023-08-16T06:39:42.949Z,9.00
2023-08-16T06:43:50.797Z,8.30
2023-08-16T06:48:01.201Z,8.00
2023-08-16T06:52:10.706Z,8.30
2023-08-16T06:56:18.623Z,8.30
2023-08-16T07:00:27.804Z,8.70
2023-08-16T07:04:35.885Z,8.70
2023-08-16T07:08:45.524Z,8.60
2023-08-16T07:12:53.458Z,9.30
2023-08-16T07:17:01.449Z,8.60
2023-08-16T07:21:09.354Z,8.90
2023-08-16T07:25:17.257Z,8.80
2023-08-16T07:29:26.468Z,8.70
2023-08-16T07:33:36.392Z,9.10
2023-08-16T07:37:44.774Z,8.60
2023-08-16T07:41:52.781Z,8.90
2023-08-16T07:46:02.108Z,8.50
2023-08-16T07:50:11.883Z,8.90
2023-08-16T07:54:19.587Z,9.00
2023-08-16T07:58:28.145Z,8.60
2023-08-16T08:02:53.728Z,8.50
2023-08-16T08:07:06.120Z,8.50
2023-08-16T08:11:13.920Z,8.80
2023-08-16T08:15:22.698Z,8.20
2023-08-16T08:19:31.199Z,8.40
2023-08-16T08:23:41.558Z,10.00
2023-08-16T08:27:51.653Z,8.60
2023-08-16T08:31:59.692Z,8.20
2023-08-16T08:36:08.499Z,8.70
2023-08-16T08:40:16.822Z,8.20
2023-08-16T08:44:25.835Z,7.80
2023-08-16T08:48:35.824Z,7.50
2023-08-16T08:52:51.624Z,8.50
2023-08-16T08:57:00.615Z,7.80
2023-08-16T09:01:11.532Z,7.50
2023-08-16T09:05:23.484Z,8.00
2023-08-16T09:09:32.539Z,8.00
2023-08-16T09:13:40.593Z,7.70
2023-08-16T09:17:51.576Z,7.30
2023-08-16T09:22:00.588Z,7.70
2023-08-16T09:26:19.078Z,7.60
2023-08-16T09:30:29.760Z,7.20
2023-08-16T09:34:51.032Z,7.70
2023-08-16T09:39:08.089Z,7.70
2023-08-16T09:43:15.594Z,7.40
2023-08-16T09:47:40.823Z,8.00
2023-08-16T09:56:37.230Z,7.40
2023-08-16T10:00:36.161Z,7.80
2023-08-16T10:08:56.299Z,7.60
2023-08-16T10:13:05.565Z,7.20
2023-08-16T10:17:15.226Z,7.20
2023-08-16T10:21:24.813Z,7.00
2023-08-16T10:25:41.232Z,7.20
2023-08-16T10:29:54.482Z,7.00
2023-08-16T10:34:03.539Z,7.20
2023-08-16T10:38:12.375Z,7.00
2023-08-16T10:42:20.891Z,6.30
2023-08-16T10:46:33.477Z,6.80
2023-08-16T10:50:43.385Z,6.70
2023-08-16T10:54:51.918Z,7.20
2023-08-16T10:59:00.566Z,7.70
2023-08-16T11:03:22.698Z,7.10
2023-08-16T11:07:32.660Z,7.20
2023-08-16T11:11:47.457Z,7.20
2023-08-16T11:15:56.523Z,7.50
2023-08-16T11:20:08.864Z,7.60
2023-08-16T11:24:16.821Z,7.10
2023-08-16T11:28:25.343Z,7.20
2023-08-16T11:32:38.559Z,7.50
2023-08-16T11:36:47.007Z,6.80
2023-08-16T11:40:55.189Z,6.50
2023-08-16T11:45:02.729Z,6.60
2023-08-16T11:49:11.645Z,6.90
2023-08-16T11:53:21.131Z,6.60
2023-08-16T11:57:29.260Z,6.20
2023-08-16T12:01:41.152Z,6.30
2023-08-16T12:05:51.155Z,7.10
2023-08-16T12:09:59.163Z,6.40
2023-08-16T12:14:08.004Z,7.40
2023-08-16T12:18:16.811Z,7.20
2023-08-16T12:22:24.848Z,6.90
2023-08-16T12:26:33.410Z,6.50
2023-08-16T12:30:43.342Z,6.70
2023-08-16T12:35:00.545Z,6.30
2023-08-16T12:39:08.787Z,6.40
2023-08-16T12:47:29.485Z,6.20
2023-08-16T12:51:37.975Z,6.60
2023-08-16T13:04:35.405Z,6.10
2023-08-16T13:12:58.473Z,6.70
2023-08-16T13:30:13.434Z,6.60
2023-08-16T13:38:49.163Z,5.90
2023-08-16T13:43:11.283Z,6.10
2023-08-16T13:47:22.573Z,6.90
2023-08-16T13:51:30.362Z,6.60
2023-08-16T13:55:38.422Z,7.60
2023-08-16T13:59:48.579Z,6.20
2023-08-16T14:03:56.419Z,6.70
2023-08-16T14:08:05.432Z,6.60
2023-08-16T14:12:13.612Z,6.90
2023-08-16T14:16:21.239Z,7.00
2023-08-16T14:20:29.409Z,6.80
2023-08-16T14:24:36.995Z,7.10
2023-08-16T14:28:45.165Z,7.40
2023-08-16T14:32:53.375Z,7.60
2023-08-16T14:37:01.991Z,7.80
2023-08-16T14:41:10.078Z,7.30
2023-08-16T14:45:17.922Z,7.70
2023-08-16T14:49:25.785Z,7.40
2023-08-16T14:53:33.659Z,7.40
2023-08-16T14:57:47.864Z,8.20
2023-08-16T15:01:55.943Z,8.00
2023-08-16T15:06:04.139Z,7.80
2023-08-16T15:10:13.189Z,7.70
2023-08-16T15:14:20.815Z,7.90
2023-08-16T15:18:28.440Z,7.90
2023-08-16T15:22:36.291Z,7.60
2023-08-16T15:26:44.419Z,7.40
2023-08-16T15:30:57.758Z,7.70
2023-08-16T15:35:06.587Z,7.60
2023-08-16T15:39:14.906Z,7.60
2023-08-16T15:43:22.660Z,7.40
2023-08-16T15:47:30.339Z,7.50
2023-08-16T15:51:38.449Z,8.00
2023-08-16T15:55:46.576Z,7.50
2023-08-16T15:59:54.874Z,7.70
2023-08-16T16:04:02.638Z,8.00
2023-08-16T16:08:13.183Z,7.20
2023-08-16T16:12:21.925Z,7.60
2023-08-16T16:16:29.819Z,7.60
2023-08-16T16:20:37.740Z,7.80
2023-08-16T16:24:48.147Z,7.70
2023-08-16T16:28:55.620Z,7.30
2023-08-16T16:33:04.016Z,7.60
2023-08-16T16:37:12.104Z,7.70
2023-08-16T16:41:20.062Z,8.20
2023-08-16T16:45:28.708Z,7.80
2023-08-16T16:49:36.901Z,7.70
2023-08-16T16:53:45.103Z,7.40
2023-08-16T16:57:53.296Z,8.00
2023-08-16T17:02:01.105Z,7.40
2023-08-16T17:06:09.043Z,7.00
2023-08-16T17:10:17.291Z,7.00
2023-08-16T17:14:26.626Z,7.60
2023-08-16T17:18:34.449Z,9.00
2023-08-16T17:22:42.287Z,8.10
2023-08-16T17:26:50.225Z,8.80
2023-08-16T17:30:58.169Z,9.20
2023-08-16T17:35:06.057Z,8.80
2023-08-16T17:39:14.441Z,8.30
2023-08-16T17:43:22.814Z,8.00
2023-08-16T17:47:31.367Z,7.70
2023-08-16T17:51:39.065Z,8.30
2023-08-16T17:55:47.494Z,8.40
2023-08-16T17:59:55.101Z,8.80
2023-08-16T18:04:03.649Z,8.90
2023-08-16T18:08:11.450Z,9.30
2023-08-16T18:12:18.996Z,9.90
2023-08-16T18:16:26.968Z,9.40
2023-08-16T18:20:34.799Z,8.90
2023-08-16T18:24:42.418Z,8.10
2023-08-16T18:28:50.001Z,8.40
2023-08-16T18:32:58.602Z,8.70
2023-08-16T18:37:06.619Z,8.70
2023-08-16T18:41:17.136Z,9.00
2023-08-16T18:45:25.262Z,8.20
2023-08-16T18:49:33.376Z,8.10
2023-08-16T18:53:43.330Z,8.20
2023-08-16T18:57:51.953Z,8.50
2023-08-16T19:02:00.459Z,8.10
2023-08-16T19:06:08.509Z,9.30
2023-08-16T19:10:16.279Z,7.90
2023-08-16T19:14:29.021Z,8.30
2023-08-16T19:18:40.111Z,8.20
2023-08-16T19:22:48.213Z,7.60
2023-08-16T19:26:56.330Z,8.30
2023-08-16T19:31:04.062Z,7.60
2023-08-16T19:35:13.567Z,7.70
2023-08-16T19:39:21.418Z,7.40
2023-08-16T19:43:29.766Z,7.90
2023-08-16T19:47:37.467Z,8.00
2023-08-16T19:51:45.193Z,7.60
2023-08-16T19:55:57.451Z,8.10
2023-08-16T20:00:05.606Z,7.90
2023-08-16T20:04:13.563Z,7.50
2023-08-16T20:08:21.550Z,7.30
2023-08-16T20:12:30.188Z,8.10
2023-08-16T20:16:38.242Z,7.80
2023-08-16T20:20:46.170Z,7.70
2023-08-16T20:24:54.520Z,7.10
2023-08-16T20:29:02.278Z,6.80
2023-08-16T20:33:10.160Z,7.10
2023-08-16T20:37:17.810Z,7.20
2023-08-16T20:41:26.948Z,6.80
2023-08-16T20:45:34.407Z,6.90
2023-08-16T20:49:42.710Z,6.10
2023-08-16T20:54:00.471Z,6.20
2023-08-16T20:58:16.182Z,6.10
2023-08-16T21:02:24.761Z,5.30
2023-08-16T21:06:32.369Z,3.80
2023-08-16T21:10:40.280Z,3.60
2023-08-16T21:14:49.532Z,3.70
2023-08-16T21:18:57.309Z,3.20
2023-08-16T21:23:05.347Z,2.80
2023-08-16T21:27:13.067Z,2.20
2023-08-16T21:31:20.766Z,2.10
2023-08-16T21:35:29.016Z,2.00
2023-08-16T21:39:36.830Z,1.60
2023-08-16T21:43:45.303Z,1.50
2023-08-16T21:47:53.225Z,1.10
2023-08-16T21:52:01.140Z,1.70
2023-08-16T21:56:11.625Z,1.50
2023-08-16T22:00:23.106Z,1.50
2023-08-16T22:04:30.935Z,1.70
2023-08-16T22:08:38.835Z,1.70
2023-08-16T22:12:46.939Z,2.20
2023-08-16T22:16:54.847Z,1.90
2023-08-16T22:21:05.085Z,1.90
2023-08-16T22:25:15.444Z,1.60
2023-08-16T22:29:23.575Z,2.00
2023-08-16T22:33:31.333Z,1.90
2023-08-16T22:37:39.835Z,1.70
2023-08-16T22:41:48.070Z,2.10
2023-08-16T22:45:56.276Z,1.90
2023-08-16T22:50:04.485Z,2.20
2023-08-16T22:54:13.144Z,1.90
2023-08-16T22:58:20.701Z,2.00
2023-08-16T23:02:29.452Z,2.20
2023-08-16T23:06:37.600Z,2.00
2023-08-16T23:10:45.885Z,2.10
2023-08-16T23:14:53.589Z,1.90
2023-08-16T23:19:01.165Z,2.00
2023-08-16T23:23:10.856Z,2.00
2023-08-16T23:27:19.000Z,1.90
2023-08-16T23:31:26.628Z,1.90
2023-08-16T23:35:36.182Z,1.80
2023-08-16T23:39:44.578Z,2.10
2023-08-16T23:43:52.678Z,2.10
2023-08-16T23:48:02.696Z,2.10
2023-08-16T23:52:11.246Z,1.90
2023-08-16T23:56:20.118Z,2.00
